Scenic, South Dakota
Current Conditions -  °F | °C
As of 1:52 PM on Friday 31 Oct 2014 (Local Time) from KRAP Reporting Station
Clear Clear  
Wind Chill: 39°   Ceiling: Unl
Heat Index: 47°   Visibility: 10mi
Dew Point: 30°   Wind: 24mph
Humidity: 52%   Direction: 170°S
Pressure: 30.15"   Gusts: 33mph
Location:  43.78°N, 102.56°W
Report Text: KRAP 311952Z 17021G29KT 10SM CLR 08/M01 A3015 RMK AO2 PK WND 17030/1941 PRESFR SLP230 T00831011
Loading
Personal Weather Stations






























Interactive Weather Map New forecast layout! Learn more

10-Day Weather Forecast

Advertisements
Track Severe Weather on mobile